createdAt,value
2019-04-29T00:00:12.701Z,93.63
2019-04-29T00:02:43.663Z,93.51
2019-04-29T00:05:13.187Z,93.50
2019-04-29T00:07:42.512Z,94.15
2019-04-29T00:10:13.344Z,94.15
2019-04-29T00:12:42.820Z,93.85
2019-04-29T00:15:30.143Z,93.94
2019-04-29T00:18:01.155Z,93.97
2019-04-29T00:20:32.071Z,93.99
2019-04-29T00:23:01.518Z,93.87
2019-04-29T00:25:30.789Z,93.61
2019-04-29T00:28:00.154Z,93.82
2019-04-29T00:30:29.511Z,93.88
2019-04-29T00:32:58.879Z,94.38
2019-04-29T00:35:28.243Z,93.89
2019-04-29T00:38:01.817Z,93.74
2019-04-29T00:40:44.989Z,94.46
2019-04-29T00:43:15.950Z,94.10
2019-04-29T00:45:45.407Z,94.01
2019-04-29T00:48:16.205Z,94.18
2019-04-29T00:50:45.717Z,94.29
2019-04-29T00:53:16.079Z,94.14
2019-04-29T00:55:45.383Z,94.54
2019-04-29T00:58:14.671Z,94.23
2019-04-29T01:00:44.050Z,94.16
2019-04-29T01:03:13.400Z,93.60
2019-04-29T01:05:44.011Z,92.98
2019-04-29T01:08:14.450Z,93.75
2019-04-29T01:10:43.761Z,94.21
2019-04-29T01:13:13.047Z,93.67
2019-04-29T01:15:42.384Z,92.99
2019-04-29T01:18:11.843Z,92.64
2019-04-29T01:20:41.215Z,93.75
2019-04-29T01:23:10.490Z,93.38
2019-04-29T01:25:40.962Z,93.41
2019-04-29T01:28:28.517Z,94.36
2019-04-29T01:31:02.072Z,95.11
2019-04-29T01:33:31.531Z,95.12
2019-04-29T01:36:08.511Z,94.76
2019-04-29T01:38:38.867Z,94.91
2019-04-29T01:41:12.757Z,94.54
2019-04-29T01:44:02.110Z,94.37
2019-04-29T01:46:31.414Z,93.96
2019-04-29T01:49:00.756Z,94.52
2019-04-29T01:51:30.086Z,94.62
2019-04-29T01:53:59.439Z,94.70
2019-04-29T01:56:28.920Z,94.92
2019-04-29T01:58:58.191Z,95.22
2019-04-29T02:01:27.507Z,94.79
2019-04-29T02:03:56.794Z,94.82
2019-04-29T02:06:26.118Z,94.74
2019-04-29T02:08:56.360Z,94.69
2019-04-29T02:11:25.820Z,94.73
2019-04-29T02:13:55.204Z,94.78
2019-04-29T02:16:24.517Z,94.71
2019-04-29T02:18:53.970Z,94.30
2019-04-29T02:21:23.273Z,93.97
2019-04-29T02:23:54.201Z,93.52
2019-04-29T02:26:23.512Z,93.16
2019-04-29T02:28:52.875Z,93.44
2019-04-29T02:31:36.534Z,93.75
2019-04-29T02:34:06.054Z,94.14
2019-04-29T02:36:35.670Z,94.12
2019-04-29T02:39:27.005Z,94.15
2019-04-29T02:42:00.648Z,94.30
2019-04-29T02:44:29.946Z,94.36
2019-04-29T02:46:59.288Z,94.27
2019-04-29T02:49:28.591Z,94.13
2019-04-29T02:51:57.891Z,93.82
2019-04-29T02:54:28.651Z,94.40
2019-04-29T02:57:14.575Z,94.90
2019-04-29T02:59:54.533Z,94.77
2019-04-29T03:02:28.528Z,94.55
2019-04-29T03:05:08.299Z,94.71
2019-04-29T03:07:37.561Z,94.74
2019-04-29T03:10:07.439Z,94.87
2019-04-29T03:12:36.790Z,95.27
2019-04-29T03:15:07.230Z,95.49
2019-04-29T03:17:36.870Z,95.40
2019-04-29T03:20:17.528Z,95.46
2019-04-29T03:22:51.437Z,95.42
2019-04-29T03:25:20.768Z,95.24
2019-04-29T03:27:51.699Z,95.47
2019-04-29T03:30:21.013Z,95.46
2019-04-29T03:32:50.280Z,95.40
2019-04-29T03:35:19.582Z,95.19
2019-04-29T03:37:48.854Z,95.28
2019-04-29T03:40:19.302Z,95.21
2019-04-29T03:42:49.711Z,95.25
2019-04-29T03:45:19.074Z,95.24
2019-04-29T03:47:48.393Z,95.18
2019-04-29T03:50:17.897Z,95.21
2019-04-29T03:52:47.438Z,95.32
2019-04-29T03:55:16.715Z,95.21
2019-04-29T03:57:46.018Z,95.18
2019-04-29T04:00:17.026Z,95.13
2019-04-29T04:02:47.966Z,95.26
2019-04-29T04:05:18.896Z,95.13
2019-04-29T04:07:54.112Z,94.95
2019-04-29T04:10:23.480Z,95.07
2019-04-29T04:12:52.882Z,94.99
2019-04-29T04:15:22.162Z,95.05
2019-04-29T04:17:53.113Z,95.31
2019-04-29T04:20:22.796Z,95.39
2019-04-29T04:22:53.613Z,94.95
2019-04-29T04:25:22.941Z,94.94
2019-04-29T04:27:53.863Z,94.74
2019-04-29T04:30:23.395Z,94.57
2019-04-29T04:32:52.666Z,95.12
2019-04-29T04:35:22.107Z,95.09
2019-04-29T04:37:51.408Z,95.30
2019-04-29T04:40:22.367Z,95.23
2019-04-29T04:42:51.673Z,95.05
2019-04-29T04:45:21.141Z,95.06
2019-04-29T04:47:50.444Z,95.13
2019-04-29T04:50:19.797Z,95.31
2019-04-29T04:52:49.163Z,95.25
2019-04-29T04:55:20.161Z,95.23
2019-04-29T04:57:49.479Z,95.35
2019-04-29T05:00:23.165Z,95.52
2019-04-29T05:02:52.468Z,95.35
2019-04-29T05:05:21.778Z,95.66
2019-04-29T05:07:51.083Z,95.76
2019-04-29T05:10:21.533Z,95.52
2019-04-29T05:12:50.826Z,95.30
2019-04-29T05:15:20.124Z,95.47
2019-04-29T05:17:52.875Z,95.43
2019-04-29T05:20:20.806Z,95.54
2019-04-29T05:23:01.887Z,95.71
2019-04-29T05:25:32.217Z,95.64
2019-04-29T05:28:01.734Z,95.33
2019-04-29T05:30:31.064Z,95.56
2019-04-29T05:33:00.641Z,95.76
2019-04-29T05:35:32.669Z,95.58
2019-04-29T05:38:19.816Z,95.45
2019-04-29T05:40:50.772Z,95.51
2019-04-29T05:43:21.815Z,95.48
2019-04-29T05:45:55.850Z,95.43
2019-04-29T05:48:27.721Z,95.24
2019-04-29T05:51:14.531Z,95.59
2019-04-29T05:53:47.293Z,95.56
2019-04-29T05:56:18.109Z,95.40
2019-04-29T05:58:47.486Z,95.35
2019-04-29T06:01:18.396Z,95.21
2019-04-29T06:03:47.784Z,95.12
2019-04-29T06:06:17.051Z,95.05
2019-04-29T06:08:46.370Z,95.17
2019-04-29T06:11:15.677Z,95.10
2019-04-29T06:13:44.977Z,94.95
2019-04-29T06:16:15.968Z,94.60
2019-04-29T06:18:45.325Z,94.52
2019-04-29T06:21:14.626Z,94.73
2019-04-29T06:23:44.789Z,94.74
2019-04-29T06:26:15.265Z,94.10
2019-04-29T06:28:45.965Z,94.22
2019-04-29T06:31:15.501Z,93.77
2019-04-29T06:33:44.812Z,93.94
2019-04-29T06:36:14.206Z,93.75
2019-04-29T06:38:43.675Z,93.17
2019-04-29T06:41:13.036Z,93.32
2019-04-29T06:43:42.360Z,91.18
2019-04-29T06:46:11.702Z,91.53
2019-04-29T06:48:41.075Z,89.78
2019-04-29T06:51:10.503Z,87.67
2019-04-29T06:53:39.854Z,87.86
2019-04-29T06:56:09.414Z,84.72
2019-04-29T06:58:38.971Z,84.35
2019-04-29T07:01:09.239Z,84.61
2019-04-29T07:03:38.568Z,84.40
2019-04-29T07:06:07.873Z,84.65
2019-04-29T07:08:37.233Z,84.86
2019-04-29T07:11:06.559Z,84.86
2019-04-29T07:13:36.105Z,85.01
2019-04-29T07:16:05.454Z,85.50
2019-04-29T07:18:34.830Z,85.16
2019-04-29T07:21:07.493Z,84.46
2019-04-29T07:23:35.172Z,84.88
2019-04-29T07:26:04.445Z,84.84
2019-04-29T07:28:33.765Z,84.90
2019-04-29T07:31:03.370Z,84.83
2019-04-29T07:33:34.320Z,85.27
2019-04-29T07:36:10.928Z,85.20
2019-04-29T07:38:41.452Z,85.35
2019-04-29T07:41:05.683Z,84.03
2019-04-29T07:43:41.230Z,81.38
2019-04-29T07:46:09.372Z,81.45
2019-04-29T07:48:41.989Z,81.56
2019-04-29T07:51:09.871Z,82.45
2019-04-29T07:53:45.073Z,83.16
2019-04-29T07:56:10.247Z,80.93
2019-04-29T07:58:39.763Z,79.63
2019-04-29T08:01:09.149Z,78.46
2019-04-29T08:03:38.458Z,80.72
2019-04-29T08:06:07.826Z,79.80
2019-04-29T08:08:37.293Z,80.64
2019-04-29T08:11:06.949Z,76.98
2019-04-29T08:13:37.261Z,77.86
2019-04-29T08:16:06.662Z,76.78
2019-04-29T08:18:35.976Z,76.88
2019-04-29T08:21:05.379Z,77.07
2019-04-29T08:23:41.133Z,76.48
2019-04-29T08:26:06.067Z,75.03
2019-04-29T08:28:35.364Z,73.73
2019-04-29T08:31:04.734Z,75.25
2019-04-29T08:33:34.135Z,74.73
2019-04-29T08:36:03.613Z,74.60
2019-04-29T08:38:32.977Z,76.13
2019-04-29T08:41:02.305Z,75.02
2019-04-29T08:43:36.272Z,73.31
2019-04-29T08:46:19.517Z,69.39
2019-04-29T08:48:48.880Z,67.54
2019-04-29T08:51:18.246Z,68.91
2019-04-29T08:53:47.588Z,71.58
2019-04-29T08:56:16.897Z,66.77
2019-04-29T08:58:49.242Z,68.39
2019-04-29T09:01:17.282Z,68.37
2019-04-29T09:03:46.605Z,68.30
2019-04-29T09:06:15.930Z,64.57
2019-04-29T09:08:54.366Z,66.99
2019-04-29T09:11:17.820Z,66.53
2019-04-29T09:13:47.572Z,62.65
2019-04-29T09:16:16.887Z,65.01
2019-04-29T09:18:46.177Z,64.24
2019-04-29T09:21:15.476Z,64.28
2019-04-29T09:23:44.844Z,62.81
2019-04-29T09:26:28.123Z,61.51
2019-04-29T09:28:59.690Z,62.65
2019-04-29T09:31:28.411Z,62.82
2019-04-29T09:34:06.601Z,62.70
2019-04-29T09:36:29.090Z,57.25
2019-04-29T09:38:58.496Z,52.23
2019-04-29T09:41:35.109Z,52.55
2019-04-29T09:44:05.587Z,56.23
2019-04-29T09:46:36.413Z,54.44
2019-04-29T09:49:05.936Z,48.32
2019-04-29T09:51:35.291Z,40.62
2019-04-29T09:54:04.740Z,41.19
2019-04-29T09:56:34.746Z,35.65
2019-04-29T09:59:22.852Z,33.76
2019-04-29T10:01:55.133Z,35.04
2019-04-29T10:04:27.186Z,34.06
2019-04-29T10:06:58.180Z,37.85
2019-04-29T10:09:27.593Z,42.02
2019-04-29T10:11:57.977Z,40.76
2019-04-29T10:14:28.402Z,44.75
2019-04-29T10:17:02.420Z,42.22
2019-04-29T10:19:50.187Z,41.52
2019-04-29T10:22:19.679Z,36.88
2019-04-29T10:24:48.988Z,39.51
2019-04-29T10:27:19.104Z,42.71
2019-04-29T10:29:50.739Z,43.79
2019-04-29T10:32:23.147Z,36.05
2019-04-29T10:34:52.615Z,33.78
2019-04-29T10:37:23.803Z,36.13
2019-04-29T10:40:11.067Z,35.06
2019-04-29T10:42:35.341Z,31.75
2019-04-29T10:45:08.409Z,38.50
2019-04-29T10:47:39.588Z,46.10
2019-04-29T10:50:15.509Z,44.52
2019-04-29T10:52:45.558Z,40.68
2019-04-29T10:55:15.961Z,37.23
2019-04-29T10:57:49.764Z,38.04
2019-04-29T11:00:24.250Z,35.16
2019-04-29T11:02:53.914Z,30.31
2019-04-29T11:05:28.104Z,32.33
2019-04-29T11:08:02.514Z,32.86
2019-04-29T11:10:32.477Z,33.57
2019-04-29T11:13:03.658Z,33.66
2019-04-29T11:15:34.691Z,35.04
2019-04-29T11:18:04.656Z,33.37
2019-04-29T11:20:35.523Z,31.76
2019-04-29T11:23:18.245Z,30.65
2019-04-29T11:25:51.234Z,30.33
2019-04-29T11:28:20.757Z,30.33
2019-04-29T11:30:50.287Z,30.10
2019-04-29T11:33:31.373Z,30.00
2019-04-29T11:36:10.842Z,33.36
2019-04-29T11:38:40.747Z,38.30
2019-04-29T11:41:17.921Z,39.26
2019-04-29T11:43:46.731Z,43.18
2019-04-29T11:46:15.714Z,42.72
2019-04-29T11:48:45.293Z,41.41
2019-04-29T11:51:22.086Z,35.71
2019-04-29T11:53:51.516Z,32.43
2019-04-29T11:56:20.814Z,35.04
2019-04-29T11:59:00.457Z,36.63
2019-04-29T12:01:38.817Z,34.14
2019-04-29T12:04:18.832Z,34.53
2019-04-29T12:06:51.165Z,32.68
2019-04-29T12:09:19.722Z,31.03
2019-04-29T12:11:49.027Z,28.35
2019-04-29T12:14:37.973Z,30.85
2019-04-29T12:17:25.622Z,33.94
2019-04-29T12:19:59.657Z,37.59
2019-04-29T12:22:31.003Z,39.19
2019-04-29T12:25:00.616Z,38.53
2019-04-29T12:27:30.006Z,38.85
2019-04-29T12:29:59.825Z,32.32
2019-04-29T12:32:33.754Z,36.52
2019-04-29T12:35:12.296Z,37.86
2019-04-29T12:37:55.251Z,41.22
2019-04-29T12:40:45.531Z,41.73
2019-04-29T12:43:21.094Z,43.28
2019-04-29T12:46:10.138Z,38.41
2019-04-29T12:48:38.939Z,34.38
2019-04-29T12:51:08.553Z,38.89
2019-04-29T12:53:37.858Z,37.09
2019-04-29T12:56:11.205Z,40.08
2019-04-29T12:58:38.159Z,39.47
2019-04-29T13:01:12.146Z,39.48
2019-04-29T13:03:43.298Z,40.85
2019-04-29T13:06:38.720Z,40.59
2019-04-29T13:09:01.528Z,44.48
2019-04-29T13:11:45.354Z,44.10
2019-04-29T13:14:02.713Z,48.15
2019-04-29T13:16:33.703Z,47.79
2019-04-29T13:19:25.087Z,43.62
2019-04-29T13:21:52.541Z,40.90
2019-04-29T13:24:24.805Z,37.73
2019-04-29T13:26:53.004Z,34.67
2019-04-29T13:29:27.412Z,36.73
2019-04-29T13:31:55.027Z,41.36
2019-04-29T13:34:31.149Z,38.16
2019-04-29T13:37:06.636Z,35.99
2019-04-29T13:39:39.263Z,37.33
2019-04-29T13:42:03.023Z,38.52
2019-04-29T13:44:31.974Z,35.40
2019-04-29T13:47:28.389Z,37.44
2019-04-29T13:50:17.191Z,37.18
2019-04-29T13:52:31.760Z,39.11
2019-04-29T13:55:16.685Z,37.36
2019-04-29T13:57:32.519Z,37.91
2019-04-29T14:00:14.246Z,37.42
2019-04-29T14:02:59.283Z,38.49
2019-04-29T14:05:32.449Z,38.92
2019-04-29T14:08:01.582Z,43.01
2019-04-29T14:10:30.908Z,47.72
2019-04-29T14:13:09.659Z,46.55
2019-04-29T14:15:33.932Z,46.17
2019-04-29T14:18:02.242Z,48.12
2019-04-29T14:20:31.540Z,48.00
2019-04-29T14:23:00.905Z,47.51
2019-04-29T14:25:30.211Z,49.20
2019-04-29T14:27:59.488Z,45.90
2019-04-29T14:30:38.438Z,44.73
2019-04-29T14:33:02.031Z,41.82
2019-04-29T14:35:36.199Z,42.29
2019-04-29T14:38:05.319Z,44.76
2019-04-29T14:40:38.929Z,45.94
2019-04-29T14:43:30.979Z,48.21
2019-04-29T14:46:07.707Z,48.27
2019-04-29T14:48:42.583Z,45.31
2019-04-29T14:51:09.546Z,45.05
2019-04-29T14:53:38.723Z,46.39
2019-04-29T14:56:08.026Z,46.53
2019-04-29T14:58:37.368Z,45.64
2019-04-29T15:01:12.176Z,46.16
2019-04-29T15:03:58.652Z,46.14
2019-04-29T15:06:29.576Z,43.43
2019-04-29T15:08:59.203Z,46.47
2019-04-29T15:11:31.830Z,44.84
2019-04-29T15:14:05.786Z,45.27
2019-04-29T15:16:37.272Z,43.13
2019-04-29T15:19:23.815Z,45.07
2019-04-29T15:21:54.841Z,45.88
2019-04-29T15:24:27.453Z,47.29
2019-04-29T15:26:55.373Z,48.13
2019-04-29T15:29:24.734Z,50.64
2019-04-29T15:31:54.090Z,51.42
2019-04-29T15:34:24.429Z,53.14
2019-04-29T15:36:53.768Z,54.24
2019-04-29T15:39:25.325Z,54.91
2019-04-29T15:41:54.908Z,54.12
2019-04-29T15:44:24.620Z,53.79
2019-04-29T15:46:53.945Z,55.25
2019-04-29T15:49:24.688Z,57.23
2019-04-29T15:51:54.378Z,57.04
2019-04-29T15:54:26.016Z,56.67
2019-04-29T15:56:55.143Z,54.63
2019-04-29T15:59:24.419Z,54.16
2019-04-29T16:01:53.767Z,55.01
2019-04-29T16:04:27.823Z,53.04
2019-04-29T16:06:57.364Z,51.54
2019-04-29T16:09:41.973Z,50.48
2019-04-29T16:12:05.169Z,54.28
2019-04-29T16:14:31.176Z,53.37
2019-04-29T16:17:01.544Z,54.76
2019-04-29T16:19:30.993Z,55.84
2019-04-29T16:22:00.302Z,56.33
2019-04-29T16:24:37.755Z,57.24
2019-04-29T16:27:01.104Z,58.07
2019-04-29T16:29:31.624Z,57.06
2019-04-29T16:32:03.277Z,57.33
2019-04-29T16:34:37.561Z,56.47
2019-04-29T16:37:03.185Z,56.80
2019-04-29T16:39:33.077Z,54.67
2019-04-29T16:42:07.155Z,54.56
2019-04-29T16:44:36.674Z,56.25
2019-04-29T16:47:13.284Z,55.11
2019-04-29T16:49:39.651Z,53.25
2019-04-29T16:52:09.026Z,54.61
2019-04-29T16:54:38.302Z,58.52
2019-04-29T16:57:07.799Z,60.39
2019-04-29T16:59:37.154Z,60.72
2019-04-29T17:02:06.599Z,61.67
2019-04-29T17:04:35.892Z,63.48
2019-04-29T17:07:14.009Z,60.13
2019-04-29T17:09:40.878Z,57.90
2019-04-29T17:12:10.178Z,56.19
2019-04-29T17:15:02.353Z,56.28
2019-04-29T17:17:15.670Z,58.45
2019-04-29T17:19:44.981Z,61.15
2019-04-29T17:22:25.358Z,60.77
2019-04-29T17:24:45.692Z,62.56
2019-04-29T17:27:42.093Z,62.06
2019-04-29T17:30:26.044Z,62.29
2019-04-29T17:33:26.477Z,63.50
2019-04-29T17:35:47.781Z,64.50
2019-04-29T17:38:17.342Z,64.62
2019-04-29T17:40:51.105Z,65.00
2019-04-29T17:43:19.386Z,65.34
2019-04-29T17:45:50.487Z,65.12
2019-04-29T17:48:22.310Z,65.79
2019-04-29T17:50:56.156Z,65.19
2019-04-29T17:53:30.085Z,65.64
2019-04-29T17:56:05.333Z,64.92
2019-04-29T17:58:36.431Z,64.87
2019-04-29T18:01:10.445Z,65.30
2019-04-29T18:03:45.940Z,63.89
2019-04-29T18:06:24.447Z,63.34
2019-04-29T18:08:52.492Z,61.62
2019-04-29T18:11:21.877Z,63.36
2019-04-29T18:13:52.534Z,64.55
2019-04-29T18:16:28.010Z,64.52
2019-04-29T18:19:08.931Z,64.98
2019-04-29T18:21:43.326Z,64.07
2019-04-29T18:24:18.040Z,65.67
2019-04-29T18:26:49.941Z,66.13
2019-04-29T18:29:20.419Z,66.31
2019-04-29T18:31:49.802Z,67.01
2019-04-29T18:34:19.184Z,67.36
2019-04-29T18:36:50.026Z,67.72
2019-04-29T18:39:29.975Z,68.61
2019-04-29T18:41:58.697Z,68.79
2019-04-29T18:44:29.247Z,69.20
2019-04-29T18:46:58.704Z,68.97
2019-04-29T18:49:28.115Z,70.15
2019-04-29T18:52:02.299Z,69.78
2019-04-29T18:54:30.055Z,70.07
2019-04-29T18:56:59.475Z,70.18
2019-04-29T18:59:33.638Z,70.78
2019-04-29T19:02:07.900Z,71.42
2019-04-29T19:04:38.885Z,71.23
2019-04-29T19:07:08.282Z,71.27
2019-04-29T19:09:39.632Z,71.33
2019-04-29T19:12:09.049Z,71.37
2019-04-29T19:14:38.352Z,72.13
2019-04-29T19:17:08.021Z,72.38
2019-04-29T19:19:39.381Z,72.79
2019-04-29T19:22:09.854Z,73.38
2019-04-29T19:24:39.318Z,73.59
2019-04-29T19:27:10.048Z,74.24
2019-04-29T19:29:43.355Z,74.18
2019-04-29T19:32:12.053Z,74.48
2019-04-29T19:34:43.476Z,74.20
2019-04-29T19:37:12.515Z,74.96
2019-04-29T19:39:44.838Z,75.05
2019-04-29T19:42:15.649Z,75.79
2019-04-29T19:44:46.106Z,76.10
2019-04-29T19:47:16.698Z,76.34
2019-04-29T19:49:46.248Z,76.45
2019-04-29T19:52:19.067Z,76.48
2019-04-29T19:54:47.373Z,77.50
2019-04-29T19:57:16.674Z,77.75
2019-04-29T19:59:51.378Z,77.14
2019-04-29T20:02:17.826Z,77.51
2019-04-29T20:04:58.971Z,77.28
2019-04-29T20:07:27.357Z,77.32
2019-04-29T20:10:03.766Z,77.53
2019-04-29T20:12:28.271Z,78.12
2019-04-29T20:14:59.786Z,78.61
2019-04-29T20:17:49.252Z,78.42
2019-04-29T20:20:19.854Z,77.93
2019-04-29T20:22:51.230Z,77.67
2019-04-29T20:25:29.286Z,78.10
2019-04-29T20:28:05.118Z,78.30
2019-04-29T20:30:22.489Z,77.98
2019-04-29T20:32:52.153Z,77.95
2019-04-29T20:35:21.887Z,78.62
2019-04-29T20:37:55.694Z,79.16
2019-04-29T20:40:22.632Z,78.92
2019-04-29T20:42:52.088Z,79.23
2019-04-29T20:45:25.466Z,79.26
2019-04-29T20:47:53.516Z,79.92
2019-04-29T20:50:25.154Z,79.06
2019-04-29T20:53:05.903Z,79.36
2019-04-29T20:55:36.481Z,79.44
2019-04-29T20:58:06.843Z,79.87
2019-04-29T21:00:38.405Z,79.89
2019-04-29T21:03:11.224Z,80.14
2019-04-29T21:05:48.306Z,80.53
2019-04-29T21:08:16.178Z,80.58
2019-04-29T21:10:42.914Z,80.47
2019-04-29T21:13:25.651Z,80.54
2019-04-29T21:15:59.305Z,80.46
2019-04-29T21:18:27.384Z,80.81
2019-04-29T21:20:59.557Z,80.71
2019-04-29T21:23:35.010Z,81.04
2019-04-29T21:26:00.495Z,81.01
2019-04-29T21:28:31.538Z,80.67
2019-04-29T21:31:01.696Z,80.33
2019-04-29T21:33:31.247Z,80.49
2019-04-29T21:36:11.301Z,81.09
2019-04-29T21:38:48.649Z,80.90
2019-04-29T21:41:31.874Z,80.83
2019-04-29T21:44:02.549Z,80.84
2019-04-29T21:46:31.917Z,80.78
2019-04-29T21:49:05.038Z,80.69
2019-04-29T21:51:33.268Z,80.78
2019-04-29T21:54:02.590Z,81.08
2019-04-29T21:56:31.870Z,80.81
2019-04-29T21:59:02.745Z,80.85
2019-04-29T22:01:34.254Z,80.90
2019-04-29T22:04:04.272Z,81.05
2019-04-29T22:06:33.588Z,81.05
2019-04-29T22:09:04.986Z,81.12
2019-04-29T22:11:43.137Z,81.16
2019-04-29T22:14:09.863Z,81.60
2019-04-29T22:16:38.873Z,81.36
2019-04-29T22:19:08.189Z,80.97
2019-04-29T22:21:37.541Z,80.97
2019-04-29T22:24:07.018Z,80.40
2019-04-29T22:26:36.320Z,80.33
2019-04-29T22:29:05.624Z,80.63
2019-04-29T22:31:38.192Z,80.70
2019-04-29T22:34:09.872Z,80.72
2019-04-29T22:36:37.036Z,80.80
2019-04-29T22:39:07.781Z,80.96
2019-04-29T22:41:55.553Z,81.01
2019-04-29T22:44:27.068Z,81.03
2019-04-29T22:46:56.336Z,80.93
2019-04-29T22:49:29.172Z,80.45
2019-04-29T22:51:57.255Z,80.58
2019-04-29T22:54:26.683Z,80.88
2019-04-29T22:56:56.751Z,80.39
2019-04-29T22:59:27.482Z,80.51
2019-04-29T23:01:59.546Z,80.50
2019-04-29T23:04:28.851Z,80.56
2019-04-29T23:06:58.121Z,80.27
2019-04-29T23:09:27.469Z,80.21
2019-04-29T23:11:56.773Z,80.06
2019-04-29T23:14:26.171Z,80.61
2019-04-29T23:16:55.627Z,80.14
2019-04-29T23:19:25.912Z,80.11
2019-04-29T23:22:10.594Z,80.18
2019-04-29T23:24:41.641Z,80.09
2019-04-29T23:27:11.541Z,79.78
2019-04-29T23:29:43.176Z,80.42
2019-04-29T23:32:13.081Z,80.21
2019-04-29T23:34:42.456Z,80.19
2019-04-29T23:37:11.814Z,80.13
2019-04-29T23:39:41.592Z,80.22
2019-04-29T23:42:13.627Z,80.02
2019-04-29T23:44:43.854Z,79.98
2019-04-29T23:47:13.050Z,79.79
2019-04-29T23:49:44.499Z,80.24
2019-04-29T23:52:13.574Z,80.03
2019-04-29T23:54:46.951Z,79.87
2019-04-29T23:57:22.919Z,80.50
